Flight Track Log - Related Links

Times and Time Zones

All times are in EDT time to prevent confusion due to time zone crossing. See the N216WD flight status page for this flight to view local times or setup timezone preferences in your user account.

Time Position Orientation Groundspeed Altitude Reporting Facility
EDT Latitude Longitude Course Direction KTS MPH feet Rate Location/Type
Sun 12:38:17 PM 30.2961 -97.6047 97° East 217 250 5,800  Level Houston Center
Sun 12:39:19 PM 30.3408 -97.5225 58° Northeast 254 292 9,400 2,952 Climbing Houston Center
Sun 12:40:21 PM 30.3394 -97.4272 91° East 290 334 11,900 1,355 Climbing Houston Center
Sun 12:41:23 PM 30.3381 -97.3203 91° East 326 375 12,200 1,500 Climbing Houston Center
Sun 12:42:00 PM 30.3333 -96.8917 90° East  Level FlightAware Approximate
Sun 12:42:25 PM 30.3367 -97.2147 91° East 327 376 15,000  Level Houston Center
Sun 12:43:00 PM 30.3294 -96.7438 97° East  Level FlightAware Approximate
Sun 12:43:27 PM 30.3483 -97.1072 83° East 333 383 17,200  Level Houston Center
Sun 12:44:29 PM 30.3514 -96.9869 88° East 367 422 19,400 2,304 Climbing Houston Center
Sun 12:45:32 PM 30.3322 -96.8414 99° East 388 447 22,000 2,352 Climbing Houston Center
Sun 12:46:34 PM 30.3097 -96.7133 101° East 400 460 24,300 2,032 Climbing Houston Center
Sun 12:47:36 PM 30.2922 -96.5833 99° East 405 466 26,200 1,548 Climbing Houston Center
Sun 12:48:38 PM 30.2722 -96.4481 100° East 422 486 27,500 1,210 Climbing Houston Center
Sun 12:49:40 PM 30.2511 -96.3067 100° East 438 504 28,700 1,306 Climbing Houston Center
Sun 12:50:42 PM 30.2306 -96.1608 99° East 452 520 30,200 1,452 Climbing Houston Center
Sun 12:51:44 PM 30.2044 -95.9950 100° East 455 524 31,700 1,258 Climbing Houston Center
Sun 12:52:46 PM 30.1817 -95.8467 100° East 467 537 32,800 1,065 Climbing Houston Center
Sun 12:53:48 PM 30.1586 -95.6944 100° East 478 550 33,900 968 Climbing Houston Center
Sun 12:54:50 PM 30.1353 -95.5408 100° East 483 556 34,800 1,161 Climbing Houston Center
Sun 12:55:52 PM 30.1117 -95.3847 100° East 491 565 36,300 1,056 Climbing Houston Center
Sun 12:56:55 PM 30.0883 -95.2322 100° East 482 555 37,000 336 Climbing Houston Center
Sun 12:57:57 PM 30.0628 -95.0717 100° East 500 575 37,000  Level Houston Center
Sun 12:58:59 PM 30.0317 -94.8728 100° East 519 597 37,000  Level Houston Center
Sun 01:00:01 PM 30.0042 -94.7067 101° East 524 603 37,000  Level Houston Center
Sun 01:01:03 PM 29.9767 -94.5386 101° East 529 609 37,000  Level Houston Center
Sun 01:02:05 PM 29.9494 -94.3750 101° East 526 605 37,000  Level Houston Center
Sun 01:03:07 PM 29.9228 -94.2100 101° East 527 606 37,000  Level Houston Center
Sun 01:04:09 PM 29.8944 -94.0439 101° East 531 611 37,000  Level Houston Center
Sun 01:05:11 PM 29.8614 -93.8447 101° East 533 613 37,000  Level Houston Center
Sun 01:06:13 PM 29.8331 -93.6794 101° East 532 612 37,000  Level Houston Center
Sun 01:07:16 PM 29.8039 -93.5150 102° East 531 611 37,000  Level Houston Center
Sun 01:08:18 PM 29.7758 -93.3489 101° East 532 612 37,000  Level Houston Center
Sun 01:09:20 PM 29.7411 -93.1525 101° East 527 606 37,000  Level Houston Center
Sun 01:10:22 PM 29.7136 -92.9883 101° East 527 606 37,000  Level Houston Center
Sun 01:11:24 PM 29.6850 -92.8244 101° East 526 605 37,000  Level Houston Center
Sun 01:12:26 PM 29.6556 -92.6619 102° East 524 603 37,000  Level Houston Center
Sun 01:13:28 PM 29.6264 -92.4983 102° East 524 603 37,000  Level Houston Center
Sun 01:14:30 PM 29.5917 -92.3031 102° East 521 600 37,000  Level Houston Center
Sun 01:15:32 PM 29.5619 -92.1392 102° East 525 604 37,000  Level Houston Center
Sun 01:16:34 PM 29.5322 -91.9764 102° East 524 603 37,000  Level Houston Center
Sun 01:17:36 PM 29.5022 -91.8125 102° East 526 605 37,000  Level Houston Center
Sun 01:18:39 PM 29.4703 -91.6383 102° East 525 604 37,000  Level Houston Center
Sun 01:19:41 PM 29.4392 -91.4753 102° East 526 605 37,000  Level Houston Center
Sun 01:20:43 PM 29.4083 -91.3117 102° East 526 605 37,000  Level Houston Center
Sun 01:21:45 PM 29.3772 -91.1492 102° East 526 605 37,000  Level Houston Center
Sun 01:22:47 PM 29.3400 -90.9531 102° East 527 606 37,000  Level Houston Center
Sun 01:23:49 PM 29.3089 -90.7894 102° East 530 610 37,000  Level Houston Center
Sun 01:24:51 PM 29.2767 -90.6278 103° East 525 604 37,000  Level Houston Center
Sun 01:25:53 PM 29.2456 -90.4639 102° East 529 609 37,000  Level Houston Center
Sun 01:26:55 PM 29.2131 -90.3008 103° East 528 608 37,000  Level Houston Center
Sun 01:27:57 PM 29.1736 -90.1053 103° East 530 610 37,000  Level Houston Center
Sun 01:29:00 PM 29.1408 -89.9422 103° East 530 610 37,000  Level Houston Center
Sun 01:30:02 PM 29.1064 -89.7786 104° East 534 615 37,000  Level Houston Center
Sun 01:31:04 PM 29.0736 -89.6153 103° East 531 611 37,000  Level Houston Center
Sun 01:32:06 PM 29.0403 -89.4497 103° East 537 618 37,000  Level Houston Center
Sun 01:33:08 PM 28.9992 -89.2564 104° East 528 608 37,000  Level Houston Center
Sun 01:34:10 PM 28.9647 -89.0931 104° East 529 609 37,000  Level Houston Center
Sun 01:35:12 PM 28.9303 -88.9306 104° East 529 609 37,000  Level Houston Center
Sun 01:36:14 PM 28.8967 -88.7697 103° East 526 605 37,000  Level Houston Center
Sun 01:37:16 PM 28.8597 -88.6089 105° East 526 605 37,000  Level Houston Center
Sun 01:38:19 PM 28.8031 -88.4228 109° East 521 600 37,000  Level Houston Center
Sun 01:39:21 PM 28.7611 -88.2653 107° East 519 597 37,000  Level Houston Center
Sun 01:40:23 PM 28.7175 -88.1089 108° East 519 597 37,000  Level Houston Center
Sun 01:41:25 PM 28.6692 -87.9367 108° East 519 597 37,000  Level Houston Center
Sun 01:42:27 PM 28.6250 -87.7811 108° East 519 597 37,000  Level Houston Center
Sun 01:43:29 PM 28.5806 -87.6244 108° East 521 600 37,000  Level Houston Center
Sun 01:44:14 PM 28.5431 -87.4978 109° East 504 580 37,000  Level Jacksonville Center
Sun 01:45:15 PM 28.5028 -87.3450 107° East 509 586 37,000  Level Jacksonville Center
Sun 01:46:14 PM 28.4558 -87.1869 109° East 522 601 37,000  Level Jacksonville Center
Sun 01:47:14 PM 28.4108 -87.0364 109° East 522 601 37,000  Level Jacksonville Center
Sun 01:48:14 PM 28.3617 -86.8694 108° East 533 613 37,000  Level Jacksonville Center
Sun 01:49:15 PM 28.3164 -86.7167 109° East 526 605 37,000  Level Jacksonville Center
Sun 01:50:14 PM 28.2728 -86.5642 108° East 526 605 37,000  Level Jacksonville Center
Sun 01:51:15 PM 28.2272 -86.4072 108° East 526 605 37,000  Level Jacksonville Center
Sun 01:52:15 PM 28.1811 -86.2503 108° East 520 598 37,000  Level Jacksonville Center
Sun 01:53:15 PM 28.1350 -86.0956 109° East 525 604 37,000  Level Jacksonville Center
Sun 01:54:14 PM 28.0869 -85.9367 109° East 530 610 37,000 -303 Level Jacksonville Center
Sun 01:55:14 PM 28.0403 -85.7800 109° East 530 610 36,400 -700 Descending Jacksonville Center
Sun 01:56:14 PM 27.9917 -85.6189 109° East 530 610 35,600 -957 Descending Jacksonville Center
Sun 01:58:22 PM 27.8958 -85.3036 109° East 530 610 33,400 -830 Descending Miami Center
Sun 01:59:22 PM 27.8569 -85.1458 106° East 521 600 33,000 -200 Descending Miami Center
Sun 02:00:22 PM 27.8414 -84.9831 96° East 521 600 33,000  Level Miami Center
Sun 02:01:22 PM 27.8067 -84.8211 104° East 526 605 33,000  Level Miami Center
Sun 02:02:22 PM 27.7825 -84.6553 99° East 531 611 33,000  Level Miami Center
Sun 02:03:22 PM 27.7475 -84.4914 104° East 531 611 33,000  Level Miami Center
Sun 02:04:22 PM 27.7036 -84.3361 108° East 531 611 33,000  Level Miami Center
Sun 02:05:22 PM 27.6383 -84.1867 116° Southeast 524 603 33,000 -150 Level Miami Center
Sun 02:06:22 PM 27.5814 -84.0311 112° Southeast 529 609 32,700 -600 Descending Miami Center
Sun 02:07:22 PM 27.5244 -83.8778 113° Southeast 529 609 31,800 -800 Descending Miami Center
Sun 02:08:22 PM 27.4647 -83.7314 115° Southeast 523 602 31,100 -400 Descending Miami Center
Sun 02:09:22 PM 27.4153 -83.5836 111° Southeast 518 596 31,000 -50 Descending Miami Center
Sun 02:10:22 PM 27.3553 -83.4353 114° Southeast 513 590 31,000  Level Miami Center
Sun 02:11:22 PM 27.2994 -83.2875 113° Southeast 513 590 31,000  Level Miami Center
Sun 02:12:22 PM 27.2358 -83.1181 113° Southeast 518 596 31,000 -300 Level Miami Center
Sun 02:13:22 PM 27.1797 -82.9681 113° Southeast 523 602 30,400 -800 Descending Miami Center
Sun 02:14:22 PM 27.1233 -82.8231 114° Southeast 517 595 29,400 -1,200 Descending Miami Center
Sun 02:15:22 PM 27.0667 -82.6778 114° Southeast 512 589 28,000 -1,150 Descending Miami Center
Sun 02:16:22 PM 27.0192 -82.5589 114° Southeast 512 589 27,100 -1,150 Descending Miami Center
Sun 02:17:22 PM 26.9528 -82.3881 114° Southeast 507 583 25,700 -1,250 Descending Miami Center
Sun 02:18:22 PM 26.8975 -82.2481 114° Southeast 502 578 24,600 -1,250 Descending Miami Center
Sun 02:19:22 PM 26.8458 -82.1178 114° Southeast 482 555 23,200 -1,450 Descending Miami Center
Sun 02:20:22 PM 26.7964 -81.9875 113° Southeast 463 533 21,700 -1,450 Descending Miami Center
Sun 02:21:22 PM 26.7464 -81.8644 114° Southeast 440 506 20,300 -1,200 Descending Miami Center
Sun 02:22:22 PM 26.6983 -81.7394 113° Southeast 435 501 19,300 -600 Descending Miami Center
Sun 02:23:22 PM 26.6942 -81.6114 92° East 420 483 19,100 -150 Descending Miami Center
Sun 02:24:22 PM 26.7258 -81.4731 76° East 425 489 19,000 -50 Descending Miami Center
Sun 02:25:22 PM 26.7547 -81.3486 75° East 449 517 19,000 -600 Level Miami Center
Sun 02:26:22 PM 26.7906 -81.2011 75° East 449 517 17,800 -1,800 Descending Miami Center
Sun 02:27:22 PM 26.8131 -81.0764 79° East 418 481 15,400 -2,500 Descending Miami Center
Sun 02:28:22 PM 26.8081 -80.9575 93° East 389 448 12,800 -2,300 Descending Miami Center
Sun 02:29:22 PM 26.8003 -80.8594 95° East 367 422 10,800 -1,900 Descending Miami Center
Sun 02:30:22 PM 26.7761 -80.7564 105° East 324 373 9,000 -900 Descending Miami Center
Sun 02:31:22 PM 26.7189 -80.7081 143° Southeast 283 326 9,000 -550 Level Miami Center
Sun 02:32:22 PM 26.6472 -80.6522 145° Southeast 281 323 7,900 -1,450 Descending Miami Center
Sun 02:33:22 PM 26.6053 -80.5833 124° Southeast 286 329 6,100 -1,547 Descending Miami Center
Sun 02:34:30 PM 26.5742 -80.4872 110° East 264 304 4,600 -1,257 Descending Miami Center
Sun 02:35:07 PM 26.5586 -80.4381 109° East 261 300 3,900 -1,154 Descending Miami Center
Sun 02:35:22 PM 26.5569 -80.4286 101° East 258 297 3,600 -873 Descending Miami Center
Sun 02:36:02 PM 26.5353 -80.3700 112° Southeast 250 288 3,100 -600 Descending Miami Center
Sun 02:36:22 PM 26.5336 -80.3492 95° East 242 278 3,000  Descending Miami Center
Sun 02:37:03 PM 26.5158 -80.3067 115° Southeast 226 260 3,100 -100 Climbing Miami Center
Sun 02:37:22 PM 26.5122 -80.2881 102° East 232 267 2,900 -871 Descending Miami Center
Sun 02:38:05 PM 26.4925 -80.2317 111° Southeast 246 283 2,200 -490 Descending Miami Center
Sun 02:39:00 PM 26.4731 -80.1708 110° East 224 258 2,100 -49 Descending Miami Center
Sun 02:40:08 PM 26.4558 -80.1078 107° East 188 216 2,100 -419 Level Miami Center
Sun 02:41:09 PM 26.4208 -80.0742 139° Southeast 151 174 1,200 -836 Descending Miami Center
Sun 02:42:10 PM 26.3892 -80.0942 210° Southwest 116 133 400 -787 Descending Miami Center
Sun 02:44:00 PM 26.3667 -80.1000 180° South  Level FlightAware Approximate
Sun 02:51:00 PM 26.3785 -80.1077 180° South  Level Estimated

Login

Don't have an account? Register now (free) for customized features, flight alerts, and more!